createdAt,value
2022-09-26T00:01:32.320Z,94.60
2022-09-26T00:04:03.991Z,94.70
2022-09-26T00:06:31.339Z,94.70
2022-09-26T00:08:59.139Z,94.70
2022-09-26T00:11:32.596Z,94.60
2022-09-26T00:14:02.762Z,94.80
2022-09-26T00:16:30.236Z,94.90
2022-09-26T00:19:01.455Z,94.80
2022-09-26T00:21:30.190Z,95.10
2022-09-26T00:23:58.810Z,95.10
2022-09-26T00:26:27.980Z,95.00
2022-09-26T00:28:55.917Z,95.00
2022-09-26T00:31:30.940Z,95.00
2022-09-26T00:33:59.100Z,95.10
2022-09-26T00:36:37.354Z,95.10
2022-09-26T00:39:12.265Z,95.10
2022-09-26T00:41:40.225Z,95.10
2022-09-26T00:44:34.874Z,95.10
2022-09-26T00:47:02.869Z,95.10
2022-09-26T00:49:41.510Z,95.10
2022-09-26T00:52:12.030Z,95.20
2022-09-26T00:54:45.223Z,95.20
2022-09-26T00:57:35.502Z,95.30
2022-09-26T01:00:07.441Z,95.30
2022-09-26T01:02:35.153Z,95.40
2022-09-26T01:05:05.026Z,95.40
2022-09-26T01:07:34.496Z,95.40
2022-09-26T01:10:04.747Z,95.60
2022-09-26T01:12:35.081Z,95.70
2022-09-26T01:15:02.845Z,95.70
2022-09-26T01:17:30.510Z,95.70
2022-09-26T01:20:16.751Z,95.80
2022-09-26T01:23:13.184Z,95.80
2022-09-26T01:26:15.977Z,95.90
2022-09-26T01:28:46.396Z,95.80
2022-09-26T01:31:31.786Z,95.80
2022-09-26T01:34:05.180Z,95.80
2022-09-26T01:37:02.103Z,95.70
2022-09-26T01:39:51.105Z,96.00
2022-09-26T01:42:33.442Z,96.00
2022-09-26T01:45:11.326Z,95.90
2022-09-26T01:47:53.280Z,95.80
2022-09-26T01:50:37.030Z,95.70
2022-09-26T01:53:08.337Z,95.70
2022-09-26T01:55:49.435Z,95.70
2022-09-26T01:58:35.546Z,95.90
2022-09-26T02:01:09.700Z,95.80
2022-09-26T02:03:45.486Z,95.80
2022-09-26T02:06:22.330Z,95.80
2022-09-26T02:08:59.696Z,96.10
2022-09-26T02:11:27.177Z,96.10
2022-09-26T02:14:03.765Z,96.10
2022-09-26T02:16:52.588Z,96.10
2022-09-26T02:19:24.155Z,96.20
2022-09-26T02:21:52.150Z,96.30
2022-09-26T02:24:20.521Z,96.30
2022-09-26T02:26:49.121Z,96.40
2022-09-26T02:29:20.591Z,96.50
2022-09-26T02:31:58.804Z,96.60
2022-09-26T02:34:26.764Z,96.60
2022-09-26T02:36:57.372Z,96.60
2022-09-26T02:39:28.360Z,96.60
2022-09-26T02:42:31.791Z,96.50
2022-09-26T02:45:14.757Z,96.40
2022-09-26T02:47:50.634Z,96.30
2022-09-26T02:50:22.031Z,96.30
2022-09-26T02:52:49.296Z,96.40
2022-09-26T02:55:26.959Z,96.30
2022-09-26T02:58:18.018Z,96.40
2022-09-26T03:01:11.806Z,96.20
2022-09-26T03:04:02.501Z,96.20
2022-09-26T03:06:44.303Z,96.20
2022-09-26T03:09:14.946Z,96.20
2022-09-26T03:11:44.294Z,96.30
2022-09-26T03:14:13.118Z,96.40
2022-09-26T03:16:44.397Z,96.40
2022-09-26T03:19:30.160Z,96.40
2022-09-26T03:21:59.905Z,96.50
2022-09-26T03:24:27.612Z,96.50
2022-09-26T03:26:59.777Z,96.70
2022-09-26T03:29:27.100Z,96.70
2022-09-26T03:31:54.539Z,96.70
2022-09-26T03:34:22.423Z,96.70
2022-09-26T03:36:50.956Z,96.80
2022-09-26T03:39:18.585Z,96.90
2022-09-26T03:41:50.678Z,97.00
2022-09-26T03:44:21.598Z,97.20
2022-09-26T03:47:04.732Z,97.10
2022-09-26T03:49:36.115Z,97.20
2022-09-26T03:52:03.910Z,97.10
2022-09-26T03:54:31.503Z,97.10
2022-09-26T03:56:58.773Z,97.10
2022-09-26T03:59:26.071Z,97.10
2022-09-26T04:01:53.673Z,97.00
2022-09-26T04:04:21.362Z,97.10
2022-09-26T04:06:51.167Z,97.10
2022-09-26T04:09:19.142Z,97.00
2022-09-26T04:11:50.897Z,97.00
2022-09-26T04:14:19.831Z,97.10
2022-09-26T04:16:51.410Z,97.20
2022-09-26T04:19:33.626Z,97.10
2022-09-26T04:22:01.428Z,97.10
2022-09-26T04:24:32.803Z,97.20
2022-09-26T04:27:00.838Z,97.20
2022-09-26T04:29:29.669Z,97.40
2022-09-26T04:32:17.513Z,97.70
2022-09-26T04:35:04.001Z,97.80
2022-09-26T04:37:31.331Z,97.50
2022-09-26T04:39:58.586Z,97.50
2022-09-26T04:42:25.912Z,97.50
2022-09-26T04:44:53.574Z,97.60
2022-09-26T04:47:20.868Z,97.60
2022-09-26T04:50:08.371Z,97.70
2022-09-26T04:52:36.102Z,97.80
2022-09-26T04:55:03.938Z,97.90
2022-09-26T04:57:31.895Z,98.00
2022-09-26T04:59:59.434Z,98.20
2022-09-26T05:02:27.017Z,98.50
2022-09-26T05:04:55.152Z,98.30
2022-09-26T05:07:22.824Z,98.30
2022-09-26T05:09:50.120Z,98.30
2022-09-26T05:12:19.457Z,98.40
2022-09-26T05:14:51.703Z,98.40
2022-09-26T05:17:21.499Z,98.50
2022-09-26T05:19:49.829Z,98.40
2022-09-26T05:22:25.058Z,98.40
2022-09-26T05:25:11.614Z,98.40
2022-09-26T05:27:40.614Z,98.50
2022-09-26T05:30:08.373Z,98.40
2022-09-26T05:38:56.967Z,98.40
2022-09-26T05:41:29.546Z,98.20
2022-09-26T05:44:31.627Z,98.50
2022-09-26T05:50:11.944Z,98.30
2022-09-26T05:52:45.169Z,98.20
2022-09-26T05:55:21.079Z,98.40
2022-09-26T05:58:58.422Z,98.20
2022-09-26T06:02:05.128Z,98.30
2022-09-26T06:04:50.294Z,98.30
2022-09-26T06:07:47.579Z,98.10
2022-09-26T06:10:38.032Z,98.00
2022-09-26T06:13:06.310Z,98.30
2022-09-26T06:15:43.293Z,98.20
2022-09-26T06:18:39.082Z,98.20
2022-09-26T06:21:10.235Z,98.10
2022-09-26T06:23:38.827Z,98.20
2022-09-26T06:26:12.384Z,98.00
2022-09-26T06:28:40.153Z,98.00
2022-09-26T06:31:16.759Z,97.90
2022-09-26T06:34:07.885Z,98.10
2022-09-26T06:36:56.919Z,98.20
2022-09-26T06:39:35.909Z,98.10
2022-09-26T06:45:17.743Z,98.40
2022-09-26T06:52:21.931Z,98.40
2022-09-26T06:54:50.259Z,98.40
2022-09-26T06:57:50.428Z,98.40
2022-09-26T07:00:19.693Z,98.50
2022-09-26T07:03:19.763Z,98.30
2022-09-26T07:06:23.559Z,98.40
2022-09-26T07:09:02.256Z,98.10
2022-09-26T07:17:31.017Z,98.40
2022-09-26T07:20:18.973Z,98.40
2022-09-26T07:23:11.419Z,98.40
2022-09-26T07:25:46.833Z,98.40
2022-09-26T07:28:17.079Z,98.20
2022-09-26T07:30:52.098Z,98.20
2022-09-26T07:33:44.170Z,98.20
2022-09-26T08:32:20.737Z,95.20
2022-09-26T08:34:49.944Z,94.80
2022-09-26T08:37:40.509Z,93.60
2022-09-26T08:40:32.700Z,92.20
2022-09-26T08:43:57.657Z,89.10
2022-09-26T08:47:01.658Z,90.50
2022-09-26T08:50:25.186Z,88.20
2022-09-26T08:53:09.256Z,85.60
2022-09-26T08:55:46.799Z,85.70
2022-09-26T08:58:27.954Z,84.80
2022-09-26T09:01:02.829Z,84.60
2022-09-26T09:03:55.855Z,81.80
2022-09-26T09:06:26.960Z,82.80
2022-09-26T09:08:59.067Z,79.90
2022-09-26T09:11:59.168Z,78.40
2022-09-26T09:14:45.183Z,76.50
2022-09-26T09:18:04.087Z,76.50
2022-09-26T09:21:01.721Z,75.60
2022-09-26T09:24:17.387Z,76.30
2022-09-26T09:29:58.226Z,74.10
2022-09-26T09:32:58.941Z,74.20
2022-09-26T09:36:02.586Z,74.20
2022-09-26T09:38:48.083Z,72.20
2022-09-26T09:41:34.499Z,71.30
2022-09-26T09:44:19.587Z,71.70
2022-09-26T09:46:50.648Z,73.20
2022-09-26T09:49:22.481Z,71.30
2022-09-26T09:51:51.270Z,70.20
2022-09-26T09:54:42.978Z,70.70
2022-09-26T09:57:17.015Z,73.00
2022-09-26T10:00:05.744Z,75.70
2022-09-26T10:03:16.313Z,76.00
2022-09-26T10:06:00.730Z,76.20
2022-09-26T10:08:42.726Z,74.70
2022-09-26T10:11:42.894Z,74.80
2022-09-26T10:14:41.254Z,75.10
2022-09-26T10:20:35.225Z,74.90
2022-09-26T10:23:31.219Z,76.40
2022-09-26T10:26:05.538Z,74.80
2022-09-26T10:28:43.306Z,72.30
2022-09-26T10:31:21.671Z,71.30
2022-09-26T10:34:20.933Z,71.30
2022-09-26T10:36:48.346Z,69.20
2022-09-26T10:39:37.046Z,68.30
2022-09-26T10:42:28.623Z,69.10
2022-09-26T10:45:15.948Z,69.30
2022-09-26T10:48:12.652Z,68.90
2022-09-26T10:51:01.781Z,66.40
2022-09-26T10:53:40.277Z,67.40
2022-09-26T10:56:13.440Z,68.90
2022-09-26T11:01:56.042Z,70.50
2022-09-26T11:04:48.881Z,68.70
2022-09-26T11:07:52.334Z,67.40
2022-09-26T11:10:41.834Z,66.40
2022-09-26T11:13:48.084Z,65.20
2022-09-26T11:16:21.160Z,67.90
2022-09-26T11:19:03.366Z,66.10
2022-09-26T11:25:07.503Z,64.80
2022-09-26T11:36:02.659Z,66.40
2022-09-26T11:38:56.133Z,67.90
2022-09-26T11:42:15.337Z,69.20
2022-09-26T11:44:59.715Z,69.10
2022-09-26T11:48:06.913Z,68.00
2022-09-26T11:51:14.284Z,66.90
2022-09-26T11:53:56.742Z,67.60
2022-09-26T11:56:58.389Z,67.20
2022-09-26T11:59:50.422Z,67.40
2022-09-26T12:02:43.818Z,67.50
2022-09-26T12:05:26.105Z,67.40
2022-09-26T12:08:17.369Z,66.90
2022-09-26T12:11:19.305Z,67.40
2022-09-26T12:13:52.883Z,66.20
2022-09-26T12:16:42.218Z,64.40
2022-09-26T12:19:47.270Z,63.80
2022-09-26T12:22:37.335Z,66.60
2022-09-26T12:31:53.657Z,62.60
2022-09-26T12:35:07.888Z,64.60
2022-09-26T12:38:29.037Z,64.40
2022-09-26T12:41:27.794Z,63.80
2022-09-26T12:44:39.016Z,62.40
2022-09-26T12:47:48.943Z,64.10
2022-09-26T13:05:36.922Z,65.10
2022-09-26T13:08:08.312Z,66.20
2022-09-26T13:10:47.316Z,67.50
2022-09-26T13:13:54.837Z,68.40
2022-09-26T13:16:33.991Z,69.60
2022-09-26T13:19:21.915Z,70.50
2022-09-26T13:21:59.952Z,69.30
2022-09-26T13:24:54.233Z,68.00
2022-09-26T13:28:05.040Z,68.60
2022-09-26T13:30:54.749Z,69.00
2022-09-26T13:33:33.761Z,68.80
2022-09-26T13:36:03.508Z,67.00
2022-09-26T13:38:39.151Z,66.00
2022-09-26T13:41:29.666Z,67.00
2022-09-26T13:44:05.123Z,67.00
2022-09-26T13:47:06.681Z,66.30
2022-09-26T13:49:45.711Z,67.10
2022-09-26T13:52:16.018Z,66.90
2022-09-26T13:54:55.670Z,66.60
2022-09-26T13:57:31.968Z,67.90
2022-09-26T13:59:59.730Z,67.20
2022-09-26T14:02:30.273Z,66.40
2022-09-26T14:05:18.749Z,65.20
2022-09-26T14:08:10.125Z,65.60
2022-09-26T14:10:40.851Z,67.40
2022-09-26T14:13:18.990Z,68.10
2022-09-26T14:15:46.921Z,68.70
2022-09-26T14:18:34.276Z,69.60
2022-09-26T14:21:26.299Z,69.50
2022-09-26T14:24:33.745Z,70.70
2022-09-26T14:27:10.918Z,70.80
2022-09-26T14:30:10.263Z,71.40
2022-09-26T14:32:39.757Z,71.10
2022-09-26T14:35:27.567Z,70.20
2022-09-26T14:38:07.684Z,72.00
2022-09-26T14:56:49.305Z,72.60
2022-09-26T14:59:17.007Z,73.90
2022-09-26T15:01:45.621Z,73.60
2022-09-26T15:04:23.802Z,73.40
2022-09-26T15:06:55.207Z,75.10
2022-09-26T15:09:43.379Z,74.90
2022-09-26T15:12:39.916Z,73.60
2022-09-26T15:15:35.690Z,74.30
2022-09-26T15:18:11.627Z,74.90
2022-09-26T15:20:40.723Z,75.30
2022-09-26T15:23:20.171Z,75.70
2022-09-26T15:25:49.463Z,76.20
2022-09-26T15:28:16.966Z,76.30
2022-09-26T15:30:44.604Z,75.50
2022-09-26T15:33:17.771Z,75.90
2022-09-26T15:35:53.974Z,75.60
2022-09-26T15:38:24.490Z,75.20
2022-09-26T15:41:02.677Z,75.20
2022-09-26T15:43:34.804Z,76.30
2022-09-26T15:46:18.707Z,75.70
2022-09-26T15:48:46.362Z,76.20
2022-09-26T15:51:21.665Z,76.80
2022-09-26T15:53:55.277Z,77.20
2022-09-26T15:56:34.771Z,77.20
2022-09-26T15:59:21.133Z,77.40
2022-09-26T16:01:48.912Z,78.10
2022-09-26T16:04:27.487Z,77.00
2022-09-26T16:07:00.292Z,77.30
2022-09-26T16:09:36.395Z,77.10
2022-09-26T16:12:29.282Z,77.40
2022-09-26T16:15:05.398Z,76.30
2022-09-26T16:17:49.552Z,75.70
2022-09-26T16:20:16.952Z,77.30
2022-09-26T16:22:53.471Z,77.30
2022-09-26T16:25:29.756Z,77.30
2022-09-26T16:27:58.218Z,76.80
2022-09-26T16:30:25.583Z,77.00
2022-09-26T16:33:03.609Z,77.40
2022-09-26T16:35:34.856Z,77.20
2022-09-26T16:38:07.330Z,77.40
2022-09-26T16:40:35.567Z,77.80
2022-09-26T16:43:21.674Z,77.30
2022-09-26T16:45:54.446Z,77.40
2022-09-26T16:48:43.078Z,77.10
2022-09-26T16:51:25.149Z,77.30
2022-09-26T16:53:59.813Z,76.90
2022-09-26T16:56:28.390Z,77.60
2022-09-26T16:59:02.225Z,77.20
2022-09-26T17:01:48.468Z,77.70
2022-09-26T17:04:24.519Z,78.20
2022-09-26T17:06:52.041Z,79.80
2022-09-26T17:09:23.195Z,80.20
2022-09-26T17:11:53.404Z,80.70
2022-09-26T17:14:25.128Z,81.30
2022-09-26T17:16:56.595Z,82.30
2022-09-26T17:19:27.128Z,83.10
2022-09-26T17:21:55.054Z,82.90
2022-09-26T17:37:03.098Z,85.10
2022-09-26T17:39:30.913Z,86.00
2022-09-26T17:42:04.182Z,85.80
2022-09-26T17:44:32.772Z,86.00
2022-09-26T17:47:00.897Z,86.80
2022-09-26T17:49:36.436Z,87.00
2022-09-26T17:52:30.865Z,86.60
2022-09-26T17:55:04.354Z,85.80
2022-09-26T17:57:39.510Z,86.50
2022-09-26T18:00:13.043Z,87.00
2022-09-26T18:02:49.176Z,87.50
2022-09-26T18:05:26.433Z,87.70
2022-09-26T18:07:57.384Z,88.40
2022-09-26T18:10:31.276Z,89.70
2022-09-26T18:13:00.822Z,90.10
2022-09-26T18:15:32.466Z,90.30
2022-09-26T18:18:02.393Z,90.40
2022-09-26T18:20:40.354Z,91.10
2022-09-26T18:23:13.943Z,91.30
2022-09-26T18:25:43.533Z,90.90
2022-09-26T18:28:14.897Z,91.40
2022-09-26T18:30:47.747Z,91.40
2022-09-26T18:33:17.573Z,91.30
2022-09-26T18:35:51.644Z,91.10
2022-09-26T19:19:56.526Z,92.40
2022-09-26T19:22:35.152Z,92.40
2022-09-26T19:25:03.882Z,92.40
2022-09-26T19:27:52.115Z,92.60
2022-09-26T19:30:21.541Z,92.20
2022-09-26T19:32:52.023Z,92.30
2022-09-26T19:35:33.222Z,92.40
2022-09-26T19:38:32.150Z,92.50
2022-09-26T19:41:00.679Z,92.50
2022-09-26T19:43:28.496Z,92.70
2022-09-26T19:45:59.005Z,92.50
2022-09-26T19:48:27.039Z,92.70
2022-09-26T19:50:56.900Z,92.50
2022-09-26T19:53:28.389Z,92.70
2022-09-26T20:05:31.518Z,92.70
2022-09-26T20:34:02.129Z,93.50
2022-09-26T20:36:45.322Z,93.60
2022-09-26T20:39:32.698Z,93.30
2022-09-26T20:42:00.496Z,93.60
2022-09-26T23:20:12.582Z,95.70
2022-09-26T23:22:40.427Z,95.70
2022-09-26T23:25:09.173Z,95.80
2022-09-26T23:27:36.704Z,95.80
2022-09-26T23:30:04.644Z,95.70
2022-09-26T23:32:32.136Z,95.80
2022-09-26T23:34:59.712Z,95.70
2022-09-26T23:37:27.239Z,95.80
2022-09-26T23:39:54.807Z,95.90
2022-09-26T23:42:22.330Z,95.90
2022-09-26T23:44:50.126Z,95.90
2022-09-26T23:47:17.634Z,95.80
2022-09-26T23:49:45.109Z,96.00
